createdAt,value
2019-03-29T00:00:15.427Z,0
2019-03-29T00:01:14.151Z,0
2019-03-29T00:02:14.104Z,0
2019-03-29T00:03:14.141Z,0
2019-03-29T00:04:14.058Z,0
2019-03-29T00:05:14.047Z,0
2019-03-29T00:06:14.902Z,0
2019-03-29T00:07:13.973Z,0
2019-03-29T00:08:14.235Z,0
2019-03-29T00:09:13.922Z,0
2019-03-29T00:10:13.894Z,0
2019-03-29T00:11:15.374Z,0
2019-03-29T00:12:14.571Z,0
2019-03-29T00:13:17.157Z,0
2019-03-29T00:14:13.791Z,0
2019-03-29T00:15:14.952Z,0
2019-03-29T00:16:13.729Z,0
2019-03-29T00:17:13.715Z,0
2019-03-29T00:18:14.739Z,0
2019-03-29T00:19:13.655Z,0
2019-03-29T00:20:15.885Z,0
2019-03-29T00:21:13.650Z,0
2019-03-29T00:22:14.397Z,0
2019-03-29T00:23:13.602Z,0
2019-03-29T00:24:17.383Z,0
2019-03-29T00:25:14.409Z,0
2019-03-29T00:26:13.469Z,0
2019-03-29T00:27:13.443Z,0
2019-03-29T00:28:13.655Z,0
2019-03-29T00:29:13.389Z,0
2019-03-29T00:30:13.371Z,0
2019-03-29T00:31:13.239Z,0
2019-03-29T00:32:13.311Z,0
2019-03-29T00:33:13.290Z,0
2019-03-29T00:34:13.272Z,0
2019-03-29T00:35:13.230Z,0
2019-03-29T00:36:13.208Z,0
2019-03-29T00:37:13.199Z,0
2019-03-29T00:38:13.171Z,0
2019-03-29T00:39:13.153Z,0
2019-03-29T00:40:13.964Z,0
2019-03-29T00:41:13.081Z,0
2019-03-29T00:42:13.144Z,0
2019-03-29T00:43:13.938Z,0
2019-03-29T00:44:12.988Z,0
2019-03-29T00:45:12.967Z,0
2019-03-29T00:46:14.265Z,0
2019-03-29T00:47:13.479Z,0
2019-03-29T00:48:12.656Z,0
2019-03-29T00:49:12.880Z,0
2019-03-29T00:50:13.994Z,0
2019-03-29T00:51:12.816Z,0
2019-03-29T00:52:12.784Z,0
2019-03-29T00:53:13.753Z,0
2019-03-29T00:54:12.727Z,0
2019-03-29T00:55:12.722Z,0
2019-03-29T00:56:13.089Z,0
2019-03-29T00:57:12.640Z,0
2019-03-29T00:58:12.617Z,0
2019-03-29T00:59:12.593Z,0
2019-03-29T01:00:13.945Z,0
2019-03-29T01:01:12.539Z,0
2019-03-29T01:02:12.520Z,0
2019-03-29T01:03:13.326Z,0
2019-03-29T01:04:12.670Z,0
2019-03-29T01:05:12.432Z,0
2019-03-29T01:06:13.048Z,0
2019-03-29T01:07:12.379Z,0
2019-03-29T01:08:17.934Z,0
2019-03-29T01:09:12.341Z,0
2019-03-29T01:10:12.301Z,0
2019-03-29T01:11:12.281Z,0
2019-03-29T01:12:12.252Z,0
2019-03-29T01:13:12.251Z,0
2019-03-29T01:14:12.189Z,0
2019-03-29T01:15:14.308Z,0
2019-03-29T01:16:12.149Z,0
2019-03-29T01:17:12.116Z,0
2019-03-29T01:18:12.154Z,0
2019-03-29T01:19:13.347Z,0
2019-03-29T01:20:12.043Z,0
2019-03-29T01:21:11.994Z,0
2019-03-29T01:22:12.934Z,0
2019-03-29T01:23:11.944Z,0
2019-03-29T01:24:11.924Z,0
2019-03-29T01:25:12.877Z,0
2019-03-29T01:26:11.873Z,0
2019-03-29T01:27:11.846Z,0
2019-03-29T01:28:12.044Z,0
2019-03-29T01:29:11.992Z,0
2019-03-29T01:30:11.527Z,0
2019-03-29T01:31:11.745Z,0
2019-03-29T01:32:11.812Z,0
2019-03-29T01:33:11.683Z,0
2019-03-29T01:34:11.432Z,0
2019-03-29T01:35:11.939Z,0
2019-03-29T01:36:11.667Z,0
2019-03-29T01:37:11.567Z,0
2019-03-29T01:38:26.982Z,0
2019-03-29T01:39:11.513Z,0
2019-03-29T01:40:11.755Z,0
2019-03-29T01:41:11.459Z,0
2019-03-29T01:42:11.430Z,0
2019-03-29T01:43:12.682Z,0
2019-03-29T01:44:11.619Z,0
2019-03-29T01:45:11.135Z,0
2019-03-29T01:46:12.009Z,0
2019-03-29T01:47:11.369Z,0
2019-03-29T01:48:11.277Z,0
2019-03-29T01:49:11.274Z,0
2019-03-29T01:50:12.701Z,0
2019-03-29T01:51:11.395Z,0
2019-03-29T01:52:11.178Z,0
2019-03-29T01:53:11.333Z,0
2019-03-29T01:54:11.433Z,0
2019-03-29T01:55:11.081Z,0
2019-03-29T01:56:10.823Z,0
2019-03-29T01:57:11.660Z,0
2019-03-29T01:58:11.017Z,0
2019-03-29T01:59:10.997Z,0
2019-03-29T02:00:11.831Z,0
2019-03-29T02:01:12.371Z,0
2019-03-29T02:02:10.754Z,0
2019-03-29T02:03:10.915Z,0
2019-03-29T02:04:13.138Z,0
2019-03-29T02:05:10.960Z,0
2019-03-29T02:06:10.820Z,0
2019-03-29T02:07:10.301Z,0
2019-03-29T02:08:12.001Z,0
2019-03-29T02:09:12.085Z,0
2019-03-29T02:10:10.694Z,0
2019-03-29T02:11:10.656Z,0
2019-03-29T02:12:11.714Z,0
2019-03-29T02:13:10.706Z,0
2019-03-29T02:14:10.585Z,0
2019-03-29T02:15:11.294Z,0
2019-03-29T02:16:11.004Z,0
2019-03-29T02:17:10.499Z,0
2019-03-29T02:18:10.494Z,0
2019-03-29T02:19:10.719Z,0
2019-03-29T02:20:10.044Z,0
2019-03-29T02:21:10.388Z,0
2019-03-29T02:22:11.392Z,0
2019-03-29T02:23:11.339Z,0
2019-03-29T02:24:10.311Z,0
2019-03-29T02:25:10.281Z,0
2019-03-29T02:26:11.210Z,0
2019-03-29T02:27:10.565Z,0
2019-03-29T02:28:10.222Z,0
2019-03-29T02:29:10.883Z,0
2019-03-29T02:30:12.019Z,0
2019-03-29T02:31:10.128Z,0
2019-03-29T02:32:10.096Z,0
2019-03-29T02:33:10.066Z,0
2019-03-29T02:34:10.052Z,0
2019-03-29T02:35:11.367Z,0
2019-03-29T02:36:11.341Z,0
2019-03-29T02:37:11.472Z,0
2019-03-29T02:38:09.941Z,0
2019-03-29T02:39:09.931Z,0
2019-03-29T02:40:10.108Z,0
2019-03-29T02:41:09.877Z,0
2019-03-29T02:42:09.830Z,0
2019-03-29T02:43:11.086Z,0
2019-03-29T02:44:10.341Z,0
2019-03-29T02:45:10.932Z,0
2019-03-29T02:46:09.732Z,0
2019-03-29T02:47:09.695Z,0
2019-03-29T02:48:09.769Z,0
2019-03-29T02:49:09.406Z,0
2019-03-29T02:50:11.430Z,0
2019-03-29T02:51:11.581Z,0
2019-03-29T02:52:09.691Z,0
2019-03-29T02:53:09.552Z,0
2019-03-29T02:54:10.419Z,0
2019-03-29T02:55:09.765Z,0
2019-03-29T02:56:09.445Z,0
2019-03-29T02:57:09.425Z,0
2019-03-29T02:58:09.390Z,0
2019-03-29T02:59:09.364Z,0
2019-03-29T03:00:09.348Z,0
2019-03-29T03:01:09.324Z,0
2019-03-29T03:02:09.317Z,0
2019-03-29T03:03:09.278Z,0
2019-03-29T03:04:09.245Z,0
2019-03-29T03:05:09.231Z,0
2019-03-29T03:06:08.933Z,0
2019-03-29T03:07:09.147Z,0
2019-03-29T03:08:09.136Z,0
2019-03-29T03:09:22.594Z,0
2019-03-29T03:10:09.094Z,0
2019-03-29T03:11:09.092Z,0
2019-03-29T03:12:09.029Z,0
2019-03-29T03:13:08.984Z,0
2019-03-29T03:14:08.975Z,0
2019-03-29T03:15:08.972Z,0
2019-03-29T03:16:08.896Z,0
2019-03-29T03:17:08.889Z,0
2019-03-29T03:18:08.936Z,0
2019-03-29T03:19:08.812Z,0
2019-03-29T03:20:08.939Z,0
2019-03-29T03:21:08.775Z,0
2019-03-29T03:22:08.827Z,0
2019-03-29T03:23:08.783Z,0
2019-03-29T03:24:08.690Z,0
2019-03-29T03:25:08.657Z,0
2019-03-29T03:26:08.653Z,0
2019-03-29T03:27:08.654Z,0
2019-03-29T03:28:08.626Z,0
2019-03-29T03:29:08.700Z,0
2019-03-29T03:30:08.554Z,0
2019-03-29T03:31:08.579Z,0
2019-03-29T03:32:08.485Z,0
2019-03-29T03:33:08.320Z,0
2019-03-29T03:34:08.797Z,0
2019-03-29T03:35:08.442Z,0
2019-03-29T03:36:08.363Z,0
2019-03-29T03:37:08.331Z,0
2019-03-29T03:38:08.317Z,0
2019-03-29T03:39:08.285Z,0
2019-03-29T03:40:08.255Z,0
2019-03-29T03:41:08.221Z,0
2019-03-29T03:42:08.194Z,0
2019-03-29T03:43:08.185Z,0
2019-03-29T03:44:08.127Z,0
2019-03-29T03:45:08.206Z,0
2019-03-29T03:46:07.856Z,0
2019-03-29T03:47:08.071Z,0
2019-03-29T03:48:08.145Z,0
2019-03-29T03:49:08.055Z,0
2019-03-29T03:50:10.432Z,0
2019-03-29T03:51:07.942Z,0
2019-03-29T03:52:07.909Z,0
2019-03-29T03:53:07.908Z,0
2019-03-29T03:54:07.856Z,0
2019-03-29T03:55:07.845Z,0
2019-03-29T03:56:07.837Z,0
2019-03-29T03:57:07.763Z,0
2019-03-29T03:58:07.750Z,0
2019-03-29T03:59:07.722Z,0
2019-03-29T04:00:07.716Z,0
2019-03-29T04:01:07.431Z,0
2019-03-29T04:02:07.399Z,0
2019-03-29T04:03:07.621Z,0
2019-03-29T04:04:07.652Z,0
2019-03-29T04:05:07.820Z,0
2019-03-29T04:06:07.608Z,0
2019-03-29T04:07:07.493Z,0
2019-03-29T04:08:07.466Z,0
2019-03-29T04:09:07.453Z,0
2019-03-29T04:10:07.703Z,0
2019-03-29T04:11:07.402Z,0
2019-03-29T04:12:07.345Z,0
2019-03-29T04:13:07.345Z,0
2019-03-29T04:14:07.314Z,0
2019-03-29T04:15:07.490Z,0
2019-03-29T04:16:07.255Z,0
2019-03-29T04:17:07.230Z,0
2019-03-29T04:18:07.345Z,0
2019-03-29T04:19:07.180Z,0
2019-03-29T04:20:07.644Z,0
2019-03-29T04:21:07.110Z,0
2019-03-29T04:22:07.092Z,0
2019-03-29T04:23:07.066Z,0
2019-03-29T04:24:07.019Z,0
2019-03-29T04:25:07.001Z,0
2019-03-29T04:26:06.957Z,0
2019-03-29T04:27:06.971Z,0
2019-03-29T04:28:06.924Z,0
2019-03-29T04:29:14.081Z,0
2019-03-29T04:30:06.866Z,0
2019-03-29T04:31:06.855Z,0
2019-03-29T04:32:06.805Z,0
2019-03-29T04:33:10.739Z,0
2019-03-29T04:34:06.859Z,0
2019-03-29T04:35:06.725Z,0
2019-03-29T04:36:06.702Z,0
2019-03-29T04:37:06.647Z,0
2019-03-29T04:38:06.636Z,0
2019-03-29T04:39:06.599Z,0
2019-03-29T04:40:17.326Z,0
2019-03-29T04:41:06.650Z,0
2019-03-29T04:42:06.502Z,0
2019-03-29T04:43:06.606Z,0
2019-03-29T04:44:06.454Z,0
2019-03-29T04:45:09.279Z,0
2019-03-29T04:46:06.394Z,0
2019-03-29T04:47:06.362Z,0
2019-03-29T04:48:06.117Z,0
2019-03-29T04:49:06.297Z,0
2019-03-29T04:50:06.277Z,0
2019-03-29T04:51:06.256Z,0
2019-03-29T04:52:06.222Z,0
2019-03-29T04:53:06.194Z,0
2019-03-29T04:54:06.164Z,0
2019-03-29T04:55:06.145Z,0
2019-03-29T04:56:06.114Z,0
2019-03-29T04:57:06.079Z,0
2019-03-29T04:58:06.070Z,0
2019-03-29T04:59:06.090Z,0
2019-03-29T05:00:06.003Z,0
2019-03-29T05:01:05.971Z,0
2019-03-29T05:02:05.703Z,5
2019-03-29T05:03:05.933Z,5
2019-03-29T05:04:05.889Z,5
2019-03-29T05:05:05.852Z,5
2019-03-29T05:06:05.840Z,5
2019-03-29T05:07:05.799Z,5
2019-03-29T05:08:05.779Z,10
2019-03-29T05:09:05.733Z,10
2019-03-29T05:10:19.869Z,10
2019-03-29T05:11:05.692Z,10
2019-03-29T05:12:05.427Z,15
2019-03-29T05:13:08.911Z,15
2019-03-29T05:14:05.602Z,15
2019-03-29T05:15:05.571Z,20
2019-03-29T05:16:05.547Z,20
2019-03-29T05:17:05.525Z,20
2019-03-29T05:18:05.477Z,25
2019-03-29T05:19:05.451Z,25
2019-03-29T05:20:05.433Z,30
2019-03-29T05:21:05.400Z,30
2019-03-29T05:22:05.368Z,30
2019-03-29T05:23:05.337Z,35
2019-03-29T05:24:05.382Z,35
2019-03-29T05:25:05.285Z,40
2019-03-29T05:26:05.249Z,40
2019-03-29T05:27:05.234Z,45
2019-03-29T05:28:05.204Z,45
2019-03-29T05:29:05.164Z,50
2019-03-29T05:30:05.155Z,50
2019-03-29T05:31:05.116Z,55
2019-03-29T05:32:05.092Z,55
2019-03-29T05:33:05.057Z,60
2019-03-29T05:34:05.025Z,65
2019-03-29T05:35:05.035Z,65
2019-03-29T05:36:05.011Z,70
2019-03-29T05:37:07.931Z,70
2019-03-29T05:38:04.926Z,75
2019-03-29T05:39:04.906Z,75
2019-03-29T05:40:05.124Z,80
2019-03-29T05:41:04.831Z,80
2019-03-29T05:42:04.570Z,85
2019-03-29T05:43:04.776Z,90
2019-03-29T05:44:04.754Z,90
2019-03-29T05:45:04.802Z,95
2019-03-29T05:46:04.697Z,95
2019-03-29T05:47:04.671Z,100
2019-03-29T05:48:04.665Z,100
2019-03-29T05:49:04.607Z,105
2019-03-29T05:50:04.381Z,105
2019-03-29T05:51:04.559Z,110
2019-03-29T05:52:04.543Z,115
2019-03-29T05:53:04.546Z,115
2019-03-29T05:54:04.479Z,120
2019-03-29T05:55:04.454Z,120
2019-03-29T05:56:04.416Z,125
2019-03-29T05:57:04.402Z,125
2019-03-29T05:58:04.354Z,130
2019-03-29T05:59:04.345Z,130
2019-03-29T06:00:04.300Z,135
2019-03-29T06:01:04.284Z,135
2019-03-29T06:02:04.263Z,140
2019-03-29T06:03:04.218Z,140
2019-03-29T06:04:04.196Z,145
2019-03-29T06:05:04.172Z,145
2019-03-29T06:06:04.139Z,150
2019-03-29T06:07:03.873Z,150
2019-03-29T06:08:04.103Z,155
2019-03-29T06:09:04.057Z,155
2019-03-29T06:10:04.035Z,160
2019-03-29T06:11:04.017Z,160
2019-03-29T06:12:03.970Z,165
2019-03-29T06:13:03.958Z,165
2019-03-29T06:14:03.931Z,165
2019-03-29T06:15:05.772Z,170
2019-03-29T06:16:06.129Z,170
2019-03-29T06:17:03.835Z,170
2019-03-29T06:18:03.800Z,175
2019-03-29T06:19:03.780Z,175
2019-03-29T06:20:03.759Z,175
2019-03-29T06:21:03.723Z,175
2019-03-29T06:22:03.689Z,180
2019-03-29T06:23:03.665Z,180
2019-03-29T06:24:03.671Z,185
2019-03-29T06:25:03.615Z,185
2019-03-29T06:26:03.586Z,185
2019-03-29T06:27:03.551Z,190
2019-03-29T06:28:03.535Z,190
2019-03-29T06:29:03.505Z,195
2019-03-29T06:30:03.473Z,195
2019-03-29T06:31:03.560Z,195
2019-03-29T06:32:02.987Z,195
2019-03-29T06:33:03.439Z,200
2019-03-29T06:34:03.384Z,200
2019-03-29T06:35:03.338Z,205
2019-03-29T06:36:03.317Z,205
2019-03-29T06:37:03.284Z,205
2019-03-29T06:38:03.267Z,210
2019-03-29T06:39:03.239Z,210
2019-03-29T06:40:03.217Z,210
2019-03-29T06:41:12.298Z,215
2019-03-29T06:42:03.174Z,215
2019-03-29T06:43:03.124Z,215
2019-03-29T06:44:03.097Z,215
2019-03-29T06:45:03.071Z,220
2019-03-29T06:46:03.042Z,220
2019-03-29T06:47:03.024Z,220
2019-03-29T06:48:02.992Z,225
2019-03-29T06:49:02.959Z,225
2019-03-29T06:50:02.942Z,225
2019-03-29T06:51:03.163Z,225
2019-03-29T06:52:02.899Z,230
2019-03-29T06:53:02.854Z,230
2019-03-29T06:54:02.832Z,230
2019-03-29T06:55:02.613Z,230
2019-03-29T06:56:06.327Z,235
2019-03-29T06:57:02.748Z,235
2019-03-29T06:58:02.724Z,235
2019-03-29T06:59:02.454Z,245
2019-03-29T07:00:02.843Z,245
2019-03-29T07:01:02.663Z,240
2019-03-29T07:02:02.627Z,240
2019-03-29T07:03:02.354Z,240
2019-03-29T07:04:02.335Z,245
2019-03-29T07:05:02.837Z,245
2019-03-29T07:06:02.517Z,245
2019-03-29T07:07:02.484Z,245
2019-03-29T07:08:02.466Z,250
2019-03-29T07:09:02.198Z,250
2019-03-29T07:10:02.180Z,250
2019-03-29T07:11:16.031Z,250
2019-03-29T07:12:03.078Z,255
2019-03-29T07:13:05.613Z,255
2019-03-29T07:14:07.138Z,255
2019-03-29T07:15:04.785Z,255
2019-03-29T07:16:04.588Z,255
2019-03-29T07:17:02.229Z,255
2019-03-29T07:18:02.204Z,255
2019-03-29T07:19:04.929Z,260
2019-03-29T07:20:02.398Z,260
2019-03-29T07:21:02.995Z,260
2019-03-29T07:22:04.627Z,260
2019-03-29T07:23:03.912Z,260
2019-03-29T07:24:02.431Z,265
2019-03-29T07:25:02.025Z,265
2019-03-29T07:26:05.603Z,265
2019-03-29T07:27:01.741Z,265
2019-03-29T07:28:02.048Z,265
2019-03-29T07:29:02.063Z,265
2019-03-29T07:30:03.729Z,265
2019-03-29T07:31:03.606Z,270
2019-03-29T07:32:02.678Z,270
2019-03-29T07:33:01.819Z,270
2019-03-29T07:34:01.797Z,270
2019-03-29T07:35:01.776Z,270
2019-03-29T07:36:01.753Z,275
2019-03-29T07:37:01.747Z,275
2019-03-29T07:38:01.784Z,275
2019-03-29T07:39:01.703Z,275
2019-03-29T07:40:03.260Z,275
2019-03-29T07:41:01.796Z,275
2019-03-29T07:42:01.616Z,280
2019-03-29T07:43:01.110Z,280
2019-03-29T07:44:01.451Z,280
2019-03-29T07:45:02.129Z,280
2019-03-29T07:46:01.922Z,280
2019-03-29T07:47:02.804Z,280
2019-03-29T07:48:02.225Z,280
2019-03-29T07:49:03.604Z,280
2019-03-29T07:50:01.288Z,280
2019-03-29T07:51:01.454Z,280
2019-03-29T07:52:01.484Z,285
2019-03-29T07:53:01.325Z,285
2019-03-29T07:54:01.300Z,285
2019-03-29T07:55:01.286Z,285
2019-03-29T07:56:01.249Z,285
2019-03-29T07:57:01.228Z,285
2019-03-29T07:58:01.201Z,290
2019-03-29T07:59:02.723Z,285
2019-03-29T08:00:02.435Z,285
2019-03-29T08:01:02.543Z,285
2019-03-29T08:02:02.258Z,285
2019-03-29T08:03:02.320Z,290
2019-03-29T08:04:03.121Z,290
2019-03-29T08:05:01.037Z,290
2019-03-29T08:06:01.036Z,290
2019-03-29T08:07:01.050Z,290
2019-03-29T08:08:02.322Z,290
2019-03-29T08:09:01.005Z,290
2019-03-29T08:10:03.550Z,290
2019-03-29T08:11:04.357Z,290
2019-03-29T08:12:02.274Z,290
2019-03-29T08:13:02.259Z,290
2019-03-29T08:14:00.823Z,290
2019-03-29T08:15:00.798Z,295
2019-03-29T08:16:01.135Z,295
2019-03-29T08:17:00.980Z,295
2019-03-29T08:18:04.139Z,295
2019-03-29T08:19:00.649Z,300
2019-03-29T08:20:52.666Z,300
2019-03-29T08:21:02.923Z,300
2019-03-29T08:22:05.716Z,300
2019-03-29T08:23:03.584Z,305
2019-03-29T08:24:02.132Z,300
2019-03-29T08:25:04.023Z,300
2019-03-29T08:26:03.414Z,300
2019-03-29T08:27:03.667Z,300
2019-03-29T08:28:03.888Z,300
2019-03-29T08:29:05.595Z,305
2019-03-29T08:30:01.715Z,305
2019-03-29T08:31:02.546Z,305
2019-03-29T08:32:05.120Z,305
2019-03-29T08:33:01.877Z,305
2019-03-29T08:34:03.027Z,305
2019-03-29T08:35:01.866Z,305
2019-03-29T08:36:01.822Z,305
2019-03-29T08:37:01.793Z,305
2019-03-29T08:38:01.773Z,305
2019-03-29T08:39:01.827Z,305
2019-03-29T08:40:03.610Z,305
2019-03-29T08:41:01.700Z,305
2019-03-29T08:42:10.790Z,305
2019-03-29T08:43:04.700Z,305
2019-03-29T08:44:05.156Z,310
2019-03-29T08:45:01.665Z,310
2019-03-29T08:46:04.610Z,305
2019-03-29T08:47:01.574Z,310
2019-03-29T08:48:02.319Z,310
2019-03-29T08:49:01.520Z,310
2019-03-29T08:50:02.056Z,310
2019-03-29T08:51:02.050Z,310
2019-03-29T08:52:02.899Z,310
2019-03-29T08:53:04.321Z,310
2019-03-29T08:54:04.009Z,310
2019-03-29T08:55:03.642Z,310
2019-03-29T08:56:04.533Z,310
2019-03-29T08:57:01.118Z,310
2019-03-29T08:58:01.328Z,310
2019-03-29T08:59:05.787Z,310
2019-03-29T09:00:01.283Z,310
2019-03-29T09:01:01.029Z,310
2019-03-29T09:02:01.277Z,310
2019-03-29T09:03:01.216Z,310
2019-03-29T09:04:14.035Z,310
2019-03-29T09:05:01.213Z,315
2019-03-29T09:06:01.172Z,315
2019-03-29T09:07:03.434Z,315
2019-03-29T09:08:01.911Z,315
2019-03-29T09:09:02.490Z,315
2019-03-29T09:10:01.061Z,315
2019-03-29T09:11:01.046Z,315
2019-03-29T09:12:13.615Z,315
2019-03-29T09:13:04.153Z,315
2019-03-29T09:14:00.983Z,315
2019-03-29T09:15:03.559Z,315
2019-03-29T09:16:00.931Z,315
2019-03-29T09:17:00.923Z,315
2019-03-29T09:18:04.514Z,315
2019-03-29T09:19:00.882Z,315
2019-03-29T09:20:00.678Z,315
2019-03-29T09:21:00.843Z,320
2019-03-29T09:22:00.818Z,320
2019-03-29T09:23:00.807Z,320
2019-03-29T09:24:00.772Z,320
2019-03-29T09:25:00.742Z,320
2019-03-29T09:26:01.706Z,320
2019-03-29T09:27:00.734Z,320
2019-03-29T09:28:02.246Z,320
2019-03-29T09:29:00.713Z,320
2019-03-29T09:30:00.685Z,320
2019-03-29T09:31:03.663Z,320
2019-03-29T09:32:00.616Z,320
2019-03-29T09:33:01.216Z,320
2019-03-29T09:34:03.364Z,320
2019-03-29T09:35:00.545Z,325
2019-03-29T09:36:00.525Z,325
2019-03-29T09:37:04.608Z,325
2019-03-29T09:38:03.944Z,325
2019-03-29T09:38:59.817Z,325
2019-03-29T09:40:00.598Z,325
2019-03-29T09:41:08.897Z,325
2019-03-29T09:42:01.677Z,325
2019-03-29T09:43:18.046Z,325
2019-03-29T09:44:03.639Z,325
2019-03-29T09:45:00.407Z,325
2019-03-29T09:46:03.071Z,330
2019-03-29T09:47:00.291Z,330
2019-03-29T09:48:03.028Z,330
2019-03-29T09:49:00.272Z,330
2019-03-29T09:50:00.338Z,330
2019-03-29T09:51:00.600Z,335
2019-03-29T09:52:00.202Z,335
2019-03-29T09:53:03.762Z,335
2019-03-29T09:54:02.648Z,335
2019-03-29T09:55:03.461Z,340
2019-03-29T09:56:02.844Z,340
2019-03-29T09:57:00.094Z,340
2019-03-29T09:58:00.069Z,340
2019-03-29T09:59:00.044Z,340
2019-03-29T10:00:00.038Z,340
2019-03-29T10:01:00.010Z,340
2019-03-29T10:02:03.399Z,340
2019-03-29T10:02:59.972Z,335
2019-03-29T10:03:59.703Z,340
2019-03-29T10:04:59.921Z,340
2019-03-29T10:05:59.910Z,345
2019-03-29T10:06:59.941Z,350
2019-03-29T10:07:59.885Z,350
2019-03-29T10:09:02.655Z,350
2019-03-29T10:09:59.824Z,350
2019-03-29T10:10:59.805Z,345
2019-03-29T10:11:59.791Z,345
2019-03-29T10:12:59.775Z,345
2019-03-29T10:13:59.538Z,345
2019-03-29T10:14:59.757Z,345
2019-03-29T10:16:00.916Z,345
2019-03-29T10:16:59.690Z,345
2019-03-29T10:17:59.669Z,345
2019-03-29T10:18:59.712Z,345
2019-03-29T10:19:59.619Z,345
2019-03-29T10:20:59.610Z,345
2019-03-29T10:21:59.345Z,345
2019-03-29T10:22:59.603Z,345
2019-03-29T10:23:59.615Z,345
2019-03-29T10:25:01.959Z,345
2019-03-29T10:26:03.282Z,345
2019-03-29T10:26:59.491Z,345
2019-03-29T10:27:59.231Z,345
2019-03-29T10:28:59.447Z,345
2019-03-29T10:29:59.431Z,350
2019-03-29T10:30:59.407Z,345
2019-03-29T10:31:59.393Z,350
2019-03-29T10:33:02.555Z,355
2019-03-29T10:33:59.427Z,355
2019-03-29T10:34:59.357Z,355
2019-03-29T10:36:02.319Z,355
2019-03-29T10:36:59.308Z,350
2019-03-29T10:37:59.287Z,350
2019-03-29T10:38:59.264Z,355
2019-03-29T10:39:59.240Z,355
2019-03-29T10:40:59.227Z,365
2019-03-29T10:41:59.200Z,360
2019-03-29T10:43:07.560Z,365
2019-03-29T10:43:58.941Z,360
2019-03-29T10:44:59.143Z,360
2019-03-29T10:45:59.111Z,360
2019-03-29T10:46:59.101Z,360
2019-03-29T10:47:59.945Z,360
2019-03-29T10:49:01.172Z,365
2019-03-29T10:49:59.042Z,365
2019-03-29T10:50:59.038Z,365
2019-03-29T10:51:59.000Z,360
2019-03-29T10:52:59.000Z,365
2019-03-29T10:53:58.750Z,365
2019-03-29T10:54:59.522Z,360
2019-03-29T10:55:58.940Z,360
2019-03-29T10:56:58.907Z,360
2019-03-29T10:57:58.889Z,360
2019-03-29T10:58:58.865Z,360
2019-03-29T10:59:58.859Z,360
2019-03-29T11:00:58.830Z,360
2019-03-29T11:01:58.806Z,370
2019-03-29T11:02:58.796Z,365
2019-03-29T11:03:58.838Z,365
2019-03-29T11:04:58.766Z,345
2019-03-29T11:05:58.778Z,340
2019-03-29T11:06:58.751Z,360
2019-03-29T11:07:58.706Z,370
2019-03-29T11:08:58.480Z,375
2019-03-29T11:09:58.669Z,385
2019-03-29T11:10:59.227Z,380
2019-03-29T11:11:58.617Z,380
2019-03-29T11:13:11.638Z,375
2019-03-29T11:14:01.527Z,375
2019-03-29T11:14:58.560Z,380
2019-03-29T11:15:59.536Z,375
2019-03-29T11:16:58.527Z,375
2019-03-29T11:17:58.513Z,375
2019-03-29T11:18:58.559Z,380
2019-03-29T11:19:58.494Z,385
2019-03-29T11:20:58.505Z,385
2019-03-29T11:21:58.435Z,380
2019-03-29T11:22:58.431Z,380
2019-03-29T11:23:57.931Z,385
2019-03-29T11:24:58.383Z,385
2019-03-29T11:25:58.517Z,395
2019-03-29T11:26:58.350Z,395
2019-03-29T11:27:58.726Z,395
2019-03-29T11:28:58.224Z,390
2019-03-29T11:29:58.860Z,385
2019-03-29T11:30:59.105Z,390
2019-03-29T11:31:58.500Z,395
2019-03-29T11:32:58.273Z,400
2019-03-29T11:33:58.211Z,390
2019-03-29T11:34:58.192Z,400
2019-03-29T11:35:58.186Z,405
2019-03-29T11:37:01.792Z,395
2019-03-29T11:37:58.134Z,405
2019-03-29T11:38:58.118Z,420
2019-03-29T11:39:57.870Z,420
2019-03-29T11:40:58.089Z,415
2019-03-29T11:41:58.061Z,415
2019-03-29T11:42:58.065Z,415
2019-03-29T11:43:58.050Z,425
2019-03-29T11:44:58.020Z,440
2019-03-29T11:45:58.701Z,445
2019-03-29T11:46:58.833Z,420
2019-03-29T11:48:12.281Z,415
2019-03-29T11:48:57.941Z,410
2019-03-29T11:50:02.022Z,410
2019-03-29T11:50:57.907Z,410
2019-03-29T11:51:58.351Z,405
2019-03-29T11:52:57.878Z,395
2019-03-29T11:54:00.973Z,395
2019-03-29T11:54:59.837Z,405
2019-03-29T11:55:57.747Z,410
2019-03-29T11:56:57.798Z,415
2019-03-29T11:58:00.542Z,420
2019-03-29T11:58:57.857Z,420
2019-03-29T11:59:57.765Z,410
2019-03-29T12:00:57.737Z,405
2019-03-29T12:01:57.713Z,395
2019-03-29T12:02:57.458Z,390
2019-03-29T12:03:57.787Z,395
2019-03-29T12:04:57.694Z,395
2019-03-29T12:05:57.644Z,390
2019-03-29T12:06:58.495Z,390
2019-03-29T12:08:00.684Z,385
2019-03-29T12:08:59.519Z,385
2019-03-29T12:09:57.858Z,380
2019-03-29T12:10:57.394Z,380
2019-03-29T12:11:57.532Z,380
2019-03-29T12:12:57.517Z,375
2019-03-29T12:13:57.254Z,380
2019-03-29T12:14:57.482Z,385
2019-03-29T12:15:57.471Z,385
2019-03-29T12:16:58.133Z,385
2019-03-29T12:17:57.428Z,385
2019-03-29T12:18:57.168Z,380
2019-03-29T12:19:57.391Z,380
2019-03-29T12:20:59.118Z,380
2019-03-29T12:21:56.928Z,380
2019-03-29T12:22:57.343Z,380
2019-03-29T12:23:57.130Z,390
2019-03-29T12:24:57.305Z,375
2019-03-29T12:25:57.282Z,375
2019-03-29T12:26:59.764Z,380
2019-03-29T12:27:57.240Z,380
2019-03-29T12:28:57.233Z,385
2019-03-29T12:29:57.222Z,385
2019-03-29T12:30:57.045Z,380
2019-03-29T12:31:57.284Z,380
2019-03-29T12:32:57.491Z,380
2019-03-29T12:33:57.154Z,380
2019-03-29T12:34:58.328Z,390
2019-03-29T12:35:57.115Z,380
2019-03-29T12:36:57.629Z,390
2019-03-29T12:37:57.279Z,385
2019-03-29T12:38:57.050Z,385
2019-03-29T12:39:57.034Z,385
2019-03-29T12:40:57.024Z,385
2019-03-29T12:41:57.055Z,385
2019-03-29T12:42:56.983Z,380
2019-03-29T12:44:05.341Z,380
2019-03-29T12:44:58.158Z,375
2019-03-29T12:45:56.932Z,375
2019-03-29T12:46:58.832Z,375
2019-03-29T12:47:58.063Z,375
2019-03-29T12:49:00.421Z,375
2019-03-29T12:49:57.234Z,375
2019-03-29T12:50:56.850Z,375
2019-03-29T12:51:56.861Z,375
2019-03-29T12:52:56.821Z,370
2019-03-29T12:53:56.805Z,370
2019-03-29T12:54:56.865Z,370
2019-03-29T12:55:57.857Z,370
2019-03-29T12:56:56.418Z,375
2019-03-29T12:57:56.724Z,370
2019-03-29T12:58:56.480Z,370
2019-03-29T12:59:56.715Z,380
2019-03-29T13:00:56.708Z,375
2019-03-29T13:01:56.660Z,375
2019-03-29T13:02:56.645Z,375
2019-03-29T13:03:56.630Z,375
2019-03-29T13:04:56.896Z,375
2019-03-29T13:05:56.609Z,375
2019-03-29T13:06:56.587Z,375
2019-03-29T13:08:00.113Z,375
2019-03-29T13:08:56.546Z,375
2019-03-29T13:09:56.373Z,375
2019-03-29T13:10:58.278Z,375
2019-03-29T13:11:56.247Z,375
2019-03-29T13:13:00.497Z,375
2019-03-29T13:14:09.376Z,370
2019-03-29T13:14:56.510Z,375
2019-03-29T13:15:56.415Z,370
2019-03-29T13:16:56.401Z,370
2019-03-29T13:17:56.386Z,370
2019-03-29T13:18:58.457Z,370
2019-03-29T13:19:56.351Z,370
2019-03-29T13:20:56.333Z,370
2019-03-29T13:21:56.309Z,370
2019-03-29T13:22:56.068Z,375
2019-03-29T13:23:56.302Z,375
2019-03-29T13:24:56.265Z,375
2019-03-29T13:25:56.256Z,375
2019-03-29T13:26:58.801Z,375
2019-03-29T13:28:02.395Z,375
2019-03-29T13:28:57.390Z,375
2019-03-29T13:29:56.176Z,375
2019-03-29T13:30:56.239Z,375
2019-03-29T13:31:56.178Z,375
2019-03-29T13:32:56.150Z,375
2019-03-29T13:33:56.123Z,375
2019-03-29T13:34:58.243Z,375
2019-03-29T13:35:56.101Z,375
2019-03-29T13:36:56.071Z,380
2019-03-29T13:37:56.051Z,380
2019-03-29T13:38:56.044Z,380
2019-03-29T13:39:56.036Z,385
2019-03-29T13:40:55.820Z,385
2019-03-29T13:41:55.994Z,385
2019-03-29T13:42:55.983Z,385
2019-03-29T13:43:55.958Z,385
2019-03-29T13:44:55.982Z,390
2019-03-29T13:45:55.934Z,390
2019-03-29T13:46:55.909Z,385
2019-03-29T13:47:55.905Z,385
2019-03-29T13:48:55.883Z,385
2019-03-29T13:49:55.859Z,380
2019-03-29T13:50:59.194Z,380
2019-03-29T13:51:55.831Z,380
2019-03-29T13:52:55.807Z,380
2019-03-29T13:53:55.793Z,380
2019-03-29T13:54:55.775Z,380
2019-03-29T13:55:55.777Z,380
2019-03-29T13:56:55.740Z,380
2019-03-29T13:57:55.731Z,385
2019-03-29T13:58:55.744Z,380
2019-03-29T13:59:55.727Z,385
2019-03-29T14:00:55.688Z,385
2019-03-29T14:01:55.662Z,385
2019-03-29T14:02:55.806Z,385
2019-03-29T14:03:55.671Z,385
2019-03-29T14:04:55.611Z,385
2019-03-29T14:05:55.605Z,385
2019-03-29T14:06:55.584Z,385
2019-03-29T14:07:55.569Z,380